Terminal Aerodrome Forecast
Issued by NWS

Home | Current Version | Previous Version | Text Only | Print | Product List | Glossary On
Versions: 1 2 3 4 5 6 7 8 9 10 11 12 13 14 15 16 17 18 19 20 21 22 23
000
FTAK31 PAJN 231100
TAFAYA
TAF
PAYA 231123Z 2312/2412 00000KT P6SM OVC015
     FM231800 VRB03KT P6SM SCT020 BKN080
     FM232100 VRB05KT P6SM VCSH OVC060
     FM240000 VRB04KT P6SM -RA BKN025 OVC050
      AMD LTD TO CLD VIS AND WIND 2401/2410=

USA.gov is the U.S. government's official web portal to all federal, state and local government web resources and services.